Time;durP1;ratioP1;P1;durP2;ratioP2;P2;SDS_P1;SDS_P2;PMS_P1;PMS_P2;Temp;Humidity;BMP_temperature;BMP_pressure;BME280_temperature;BME280_humidity;BME280_pressure;Samples;Min_cycle;Max_cycle;Signal;HPM_P1;HPM_P2
2023/04/10 00:01:00;;;;;;;43.83;29.05;;;8.90;99.90;;;;;;5133268;27;20485;-58
2023/04/10 00:03:26;;;;;;;47.72;30.15;;;8.90;99.90;;;;;;5133314;27;20447;-58
2023/04/10 00:05:53;;;;;;;42.90;29.50;;;8.90;99.90;;;;;;5114610;27;20492;-57
2023/04/10 00:08:23;;;;;;;44.53;29.85;;;8.90;99.90;;;;;;5117297;27;20038;-58
2023/04/10 00:10:49;;;;;;;45.25;29.80;;;8.80;99.90;;;;;;5133183;27;20043;-58
2023/04/10 00:13:15;;;;;;;47.08;30.63;;;8.80;99.90;;;;;;5135233;27;20366;-57
2023/04/10 00:15:41;;;;;;;45.83;31.52;;;8.80;99.90;;;;;;5132985;27;20091;-58
2023/04/10 00:18:07;;;;;;;44.55;30.92;;;8.80;99.90;;;;;;5132895;27;20503;-58
2023/04/10 00:20:32;;;;;;;48.05;31.65;;;8.70;99.90;;;;;;5132661;27;20043;-57
2023/04/10 00:22:58;;;;;;;50.65;31.60;;;8.70;99.90;;;;;;5132977;28;20449;-57
2023/04/10 00:25:25;;;;;;;48.83;32.17;;;8.70;99.90;;;;;;5132530;28;20051;-58
2023/04/10 00:27:51;;;;;;;52.38;33.95;;;8.60;99.90;;;;;;5133022;27;20046;-58
2023/04/10 00:30:17;;;;;;;48.35;31.58;;;8.60;99.90;;;;;;5133082;28;20051;-58
2023/04/10 00:32:43;;;;;;;49.08;32.05;;;8.60;99.90;;;;;;5132910;27;20547;-58
2023/04/10 00:35:08;;;;;;;54.08;33.85;;;8.60;99.90;;;;;;5114852;28;20043;-58
2023/04/10 00:37:34;;;;;;;52.90;34.22;;;8.60;99.90;;;;;;5128632;27;20137;-58
2023/04/10 00:40:00;;;;;;;60.17;35.40;;;8.50;99.90;;;;;;5134827;27;20130;-58
2023/04/10 00:42:26;;;;;;;57.90;34.17;;;8.50;99.90;;;;;;5153449;27;20039;-58
2023/04/10 00:44:51;;;;;;;57.85;34.78;;;8.40;99.90;;;;;;5153852;27;20424;-58
2023/04/10 00:47:17;;;;;;;53.67;35.50;;;8.40;99.90;;;;;;5134752;27;20114;-58
2023/04/10 00:49:43;;;;;;;57.83;35.78;;;8.40;99.90;;;;;;5134523;27;20058;-58
2023/04/10 00:52:09;;;;;;;54.17;34.63;;;8.40;99.90;;;;;;5153372;27;20397;-58
2023/04/10 00:54:35;;;;;;;55.72;34.80;;;8.40;99.90;;;;;;5153273;27;20049;-58
2023/04/10 00:57:03;;;;;;;57.65;37.65;;;8.30;99.90;;;;;;5153385;27;20066;-58
2023/04/10 00:59:30;;;;;;;56.38;36.47;;;8.20;99.90;;;;;;5153226;27;20119;-58
2023/04/10 01:01:56;;;;;;;64.25;37.67;;;8.20;99.90;;;;;;5153181;27;20047;-57
2023/04/10 01:04:22;;;;;;;59.10;37.95;;;8.20;99.90;;;;;;5153161;27;20045;-57
2023/04/10 01:06:59;;;;;;;64.10;38.85;;;8.20;99.90;;;;;;5153489;27;20039;-58
2023/04/10 01:09:46;;;;;;;64.43;40.00;;;8.10;99.90;;;;;;5156692;27;20143;-58
2023/04/10 01:12:47;;;;;;;62.40;40.05;;;8.10;99.90;;;;;;5157045;27;20483;-59
2023/04/10 01:15:17;;;;;;;61.83;39.10;;;8.10;99.90;;;;;;5053029;28;20049;-58
2023/04/10 01:17:51;;;;;;;58.75;39.00;;;8.00;99.90;;;;;;5052888;28;20287;-57
2023/04/10 01:20:19;;;;;;;62.28;39.30;;;8.00;99.90;;;;;;5052745;28;20091;-57
2023/04/10 01:23:22;;;;;;;65.38;40.25;;;7.90;99.90;;;;;;5053182;28;20055;-58
2023/04/10 01:26:11;;;;;;;62.90;39.72;;;7.90;99.90;;;;;;5052576;28;20048;-58
2023/04/10 01:29:06;;;;;;;70.15;41.90;;;7.90;99.90;;;;;;5052258;28;20081;-58
2023/04/10 01:31:57;;;;;;;63.97;40.28;;;7.90;99.90;;;;;;5052769;28;20049;-58
2023/04/10 01:34:42;;;;;;;66.70;41.83;;;7.90;99.90;;;;;;5035758;28;20039;-58
2023/04/10 01:37:14;;;;;;;71.53;42.83;;;7.90;99.90;;;;;;5052723;28;20036;-58
2023/04/10 01:39:42;;;;;;;69.82;42.35;;;7.90;99.90;;;;;;5052488;28;20466;-58
2023/04/10 01:42:10;;;;;;;69.00;43.63;;;7.80;99.90;;;;;;5052441;28;20498;-58
2023/04/10 01:44:41;;;;;;;75.63;42.92;;;7.80;99.90;;;;;;5035883;28;20438;-58
2023/04/10 01:47:07;;;;;;;71.68;43.45;;;7.80;99.90;;;;;;5052403;28;20045;-58
2023/04/10 01:49:36;;;;;;;71.25;43.47;;;7.80;99.90;;;;;;5052489;28;20398;-58
2023/04/10 01:52:02;;;;;;;74.15;45.72;;;7.70;99.90;;;;;;5087899;27;20059;-57
2023/04/10 01:54:30;;;;;;;69.93;43.88;;;7.70;99.90;;;;;;5156682;27;20038;-58
2023/04/10 01:56:58;;;;;;;67.07;45.03;;;7.70;99.90;;;;;;5156163;27;20537;-58
2023/04/10 01:59:24;;;;;;;76.57;45.33;;;7.70;99.90;;;;;;5156119;27;20035;-58
2023/04/10 02:01:59;;;;;;;70.70;42.92;;;7.70;99.90;;;;;;5156300;27;20485;-58
2023/04/10 02:04:25;;;;;;;76.55;44.60;;;7.70;99.90;;;;;;5156266;27;20389;-57
2023/04/10 02:07:10;;;;;;;71.57;43.20;;;7.70;99.90;;;;;;5156701;27;20105;-58
2023/04/10 02:09:39;;;;;;;72.78;44.10;;;7.60;99.90;;;;;;5156118;27;20548;-58
2023/04/10 02:12:07;;;;;;;69.10;44.00;;;7.70;99.90;;;;;;5155955;27;20042;-58
2023/04/10 02:14:37;;;;;;;67.25;43.88;;;7.70;99.90;;;;;;5156082;27;20078;-58
2023/04/10 02:17:03;;;;;;;71.95;45.40;;;7.60;99.90;;;;;;5155776;27;20043;-58
2023/04/10 02:19:31;;;;;;;73.57;44.90;;;7.70;99.90;;;;;;5155398;27;20495;-57
2023/04/10 02:21:57;;;;;;;69.07;44.03;;;7.70;99.90;;;;;;5156061;27;20035;-58
2023/04/10 02:24:24;;;;;;;72.32;44.70;;;7.60;99.90;;;;;;5155578;27;20105;-58
2023/04/10 02:26:52;;;;;;;71.15;44.45;;;7.60;99.90;;;;;;5137035;27;20063;-60
2023/04/10 02:29:18;;;;;;;68.60;43.65;;;7.60;99.90;;;;;;5155604;27;20057;-57
2023/04/10 02:31:45;;;;;;;68.95;44.65;;;7.60;99.90;;;;;;5155812;27;20043;-58
2023/04/10 02:34:10;;;;;;;72.10;44.95;;;7.60;99.90;;;;;;5155946;27;20953;-58
2023/04/10 02:36:37;;;;;;;73.28;45.10;;;7.60;99.90;;;;;;5155872;27;20136;-58
2023/04/10 02:39:04;;;;;;;73.03;44.03;;;7.60;99.90;;;;;;5155701;27;20034;-58
2023/04/10 02:41:29;;;;;;;73.30;46.65;;;7.60;99.90;;;;;;5155716;27;20139;-58
2023/04/10 02:43:55;;;;;;;69.80;43.38;;;7.60;99.90;;;;;;5155346;27;20043;-58
2023/04/10 02:46:21;;;;;;;69.65;44.92;;;7.60;99.90;;;;;;5155025;27;20476;-58
2023/04/10 02:48:46;;;;;;;74.47;45.67;;;7.60;99.90;;;;;;5155292;27;20031;-58
2023/04/10 02:51:13;;;;;;;72.85;44.35;;;7.60;99.90;;;;;;5155209;27;20114;-58
2023/04/10 02:53:39;;;;;;;71.00;43.97;;;7.50;99.90;;;;;;5154983;27;20542;-58
2023/04/10 02:56:08;;;;;;;72.30;45.55;;;7.50;99.90;;;;;;5154984;27;20035;-58
2023/04/10 02:58:34;;;;;;;69.97;44.13;;;7.50;99.90;;;;;;5155004;27;20034;-58
2023/04/10 03:01:00;;;;;;;69.18;44.00;;;7.50;99.90;;;;;;5154949;27;20053;-58
2023/04/10 03:03:26;;;;;;;68.40;43.40;;;7.50;99.90;;;;;;5155089;27;20035;-58
2023/04/10 03:05:52;;;;;;;70.35;43.78;;;7.50;99.90;;;;;;5136773;27;20118;-58
2023/04/10 03:08:18;;;;;;;69.40;42.90;;;7.50;99.90;;;;;;5136106;27;20043;-58
2023/04/10 03:10:45;;;;;;;69.43;42.95;;;7.50;99.90;;;;;;5154735;27;20054;-58
2023/04/10 03:13:10;;;;;;;66.80;42.72;;;7.50;99.90;;;;;;5154523;27;20042;-57
2023/04/10 03:15:37;;;;;;;69.75;44.55;;;7.50;99.90;;;;;;5136263;27;20043;-58
2023/04/10 03:18:05;;;;;;;70.57;43.20;;;7.50;99.90;;;;;;5154671;27;20144;-59
2023/04/10 03:20:39;;;;;;;62.65;42.20;;;7.50;99.90;;;;;;5154654;27;20039;-58
2023/04/10 03:23:06;;;;;;;62.30;42.03;;;7.50;99.90;;;;;;5154633;27;20030;-57
2023/04/10 03:25:35;;;;;;;69.55;44.25;;;7.50;99.90;;;;;;5115204;27;20077;-58
2023/04/10 03:28:01;;;;;;;67.55;42.17;;;7.50;99.90;;;;;;5133452;27;20043;-58
2023/04/10 03:30:27;;;;;;;64.43;42.33;;;7.60;99.90;;;;;;5133028;27;20477;-59
2023/04/10 03:32:52;;;;;;;61.30;40.03;;;7.60;99.90;;;;;;5115346;27;20039;-58
2023/04/10 03:35:18;;;;;;;63.28;39.47;;;7.50;99.90;;;;;;5133423;27;20495;-58
2023/04/10 03:37:44;;;;;;;58.90;39.22;;;7.50;99.90;;;;;;5132387;27;20130;-58
2023/04/10 03:40:10;;;;;;;61.40;39.95;;;7.60;99.90;;;;;;5133353;27;20062;-58
2023/04/10 03:42:36;;;;;;;55.28;37.42;;;7.50;99.90;;;;;;5133383;27;20035;-58
2023/04/10 03:45:03;;;;;;;60.83;40.50;;;7.50;99.90;;;;;;5133709;27;20046;-57
2023/04/10 03:47:32;;;;;;;57.17;38.47;;;7.50;99.90;;;;;;5133498;27;20031;-58
2023/04/10 03:49:58;;;;;;;65.60;41.78;;;7.50;99.90;;;;;;5133413;27;20117;-59
2023/04/10 03:52:24;;;;;;;60.25;37.33;;;7.50;99.90;;;;;;5133317;27;20180;-58
2023/04/10 03:54:51;;;;;;;60.40;39.30;;;7.50;99.90;;;;;;5131838;27;20058;-58
2023/04/10 03:57:18;;;;;;;57.00;39.47;;;7.50;99.90;;;;;;5133157;27;20042;-58
2023/04/10 03:59:43;;;;;;;55.58;38.90;;;7.40;99.90;;;;;;5133293;27;20039;-58
2023/04/10 04:02:09;;;;;;;62.65;40.97;;;7.40;99.90;;;;;;5131773;27;20046;-57
2023/04/10 04:04:35;;;;;;;61.75;40.00;;;7.40;99.90;;;;;;5133227;27;20031;-58
2023/04/10 04:07:01;;;;;;;59.55;39.78;;;7.40;99.90;;;;;;5133065;27;20031;-57
2023/04/10 04:09:26;;;;;;;63.25;40.75;;;7.40;99.90;;;;;;5131764;27;20043;-58
2023/04/10 04:11:52;;;;;;;59.55;40.38;;;7.40;99.90;;;;;;5132844;27;20039;-58
2023/04/10 04:14:18;;;;;;;61.42;40.83;;;7.30;99.90;;;;;;5133214;27;20393;-58
2023/04/10 04:16:43;;;;;;;61.42;39.78;;;7.30;99.90;;;;;;5133414;27;20548;-57
2023/04/10 04:19:09;;;;;;;62.00;40.40;;;7.30;99.90;;;;;;5132984;27;20533;-58
2023/04/10 04:21:34;;;;;;;57.53;39.90;;;7.30;99.90;;;;;;5131919;28;20031;-59
2023/04/10 04:24:00;;;;;;;57.10;39.63;;;7.30;99.90;;;;;;5134483;27;20092;-58
2023/04/10 04:26:26;;;;;;;58.72;39.80;;;7.40;99.90;;;;;;5134994;27;20103;-57
2023/04/10 04:28:51;;;;;;;59.40;40.40;;;7.30;99.90;;;;;;5153643;27;20113;-58
2023/04/10 04:31:17;;;;;;;58.92;40.35;;;7.30;99.90;;;;;;5153742;27;20039;-58
2023/04/10 04:33:42;;;;;;;58.50;40.92;;;7.30;99.90;;;;;;5153476;27;20041;-57
2023/04/10 04:36:08;;;;;;;59.78;41.20;;;7.30;99.90;;;;;;5153574;27;20030;-57
2023/04/10 04:38:34;;;;;;;63.13;40.75;;;7.30;99.90;;;;;;5153328;27;20035;-58
2023/04/10 04:40:59;;;;;;;60.13;41.10;;;7.40;99.90;;;;;;5153452;27;20396;-57
2023/04/10 04:43:25;;;;;;;56.72;40.75;;;7.40;99.90;;;;;;5157352;27;20079;-58
2023/04/10 04:45:50;;;;;;;62.70;42.03;;;7.40;99.90;;;;;;5157547;27;20042;-57
2023/04/10 04:48:16;;;;;;;67.50;41.80;;;7.40;99.90;;;;;;5139157;27;20039;-58
2023/04/10 04:50:42;;;;;;;59.83;41.72;;;7.50;99.90;;;;;;5157531;27;20094;-58
2023/04/10 04:53:08;;;;;;;59.05;41.15;;;7.50;99.90;;;;;;5157633;27;20035;-58
2023/04/10 04:55:34;;;;;;;61.75;41.25;;;7.40;99.90;;;;;;5157623;27;20039;-58
2023/04/10 04:58:00;;;;;;;66.43;42.85;;;7.50;99.90;;;;;;5138191;27;20518;-58
2023/04/10 05:00:25;;;;;;;62.00;41.42;;;7.50;99.90;;;;;;5138795;27;20046;-58
2023/04/10 05:02:51;;;;;;;64.85;41.53;;;7.50;99.90;;;;;;5157257;27;20041;-58
2023/04/10 05:05:16;;;;;;;58.58;41.28;;;7.60;99.90;;;;;;5157160;27;20027;-58
2023/04/10 05:07:42;;;;;;;63.58;41.00;;;7.60;99.90;;;;;;5157219;27;20499;-58
2023/04/10 05:10:08;;;;;;;61.03;41.25;;;7.70;99.90;;;;;;5157147;27;20068;-58
2023/04/10 05:12:34;;;;;;;61.75;41.63;;;7.70;99.90;;;;;;5138770;27;20035;-58
2023/04/10 05:15:00;;;;;;;64.47;41.92;;;7.70;99.90;;;;;;5156971;27;20077;-58
2023/04/10 05:17:25;;;;;;;63.25;41.40;;;7.80;99.90;;;;;;5157031;27;20067;-58
2023/04/10 05:19:51;;;;;;;58.38;40.70;;;7.80;99.90;;;;;;5138302;27;20034;-58
2023/04/10 05:22:17;;;;;;;60.85;41.50;;;7.90;99.90;;;;;;5138091;27;20047;-58
2023/04/10 05:24:42;;;;;;;61.55;42.15;;;7.90;99.90;;;;;;5156559;27;20114;-58
2023/04/10 05:27:08;;;;;;;58.05;40.63;;;8.00;99.90;;;;;;5156868;27;20126;-58
2023/04/10 05:29:34;;;;;;;56.72;40.65;;;8.00;99.90;;;;;;5137673;27;20062;-58
2023/04/10 05:32:00;;;;;;;63.53;42.13;;;8.10;99.90;;;;;;5120985;27;20051;-58
2023/04/10 05:34:25;;;;;;;61.22;41.05;;;8.00;99.90;;;;;;5156983;27;20095;-58
2023/04/10 05:36:51;;;;;;;65.95;41.67;;;8.10;99.90;;;;;;5155612;27;20046;-58
2023/04/10 05:39:17;;;;;;;60.03;39.33;;;8.10;99.90;;;;;;5116708;27;20055;-58
2023/04/10 05:41:42;;;;;;;58.70;39.92;;;8.20;99.90;;;;;;5117728;27;20046;-58
2023/04/10 05:44:08;;;;;;;59.55;40.22;;;8.20;99.90;;;;;;5135924;27;20450;-58
2023/04/10 05:46:34;;;;;;;61.05;40.13;;;8.20;99.90;;;;;;5135854;27;20039;-58
2023/04/10 05:49:00;;;;;;;61.13;39.10;;;8.30;99.90;;;;;;5135635;27;20031;-58
2023/04/10 05:51:26;;;;;;;54.08;38.03;;;8.30;99.90;;;;;;5117034;27;20070;-58
2023/04/10 05:53:51;;;;;;;53.05;37.20;;;8.40;99.90;;;;;;5135149;27;20050;-58
2023/04/10 05:56:17;;;;;;;57.50;38.45;;;8.40;99.90;;;;;;5135546;27;20481;-58
2023/04/10 05:58:43;;;;;;;54.67;37.22;;;8.50;99.90;;;;;;5116582;27;20446;-58
2023/04/10 06:01:08;;;;;;;57.47;38.42;;;8.50;99.90;;;;;;5155183;27;20035;-58
2023/04/10 06:03:34;;;;;;;55.30;37.58;;;8.50;99.90;;;;;;5137003;27;20058;-58
2023/04/10 06:06:01;;;;;;;50.88;35.92;;;8.60;99.90;;;;;;5156074;27;20447;-58
2023/04/10 06:08:27;;;;;;;53.17;35.08;;;8.60;99.90;;;;;;5153892;27;20048;-58
2023/04/10 06:10:53;;;;;;;51.03;35.03;;;8.70;99.90;;;;;;5135341;27;20043;-58
2023/04/10 06:13:19;;;;;;;47.97;32.58;;;8.70;99.90;;;;;;5116752;27;20054;-58
2023/04/10 06:15:44;;;;;;;52.45;36.00;;;8.80;99.90;;;;;;5116960;27;20042;-58
2023/04/10 06:18:10;;;;;;;48.45;32.92;;;8.90;99.90;;;;;;5135528;27;20051;-58
2023/04/10 06:20:36;;;;;;;49.83;32.67;;;9.00;99.90;;;;;;5135191;27;20089;-57
2023/04/10 06:23:02;;;;;;;47.78;33.53;;;9.10;99.90;;;;;;5135036;27;20035;-58
2023/04/10 06:25:27;;;;;;;40.92;30.48;;;9.20;99.90;;;;;;5134779;27;20070;-58
2023/04/10 06:27:53;;;;;;;45.53;31.20;;;9.40;99.90;;;;;;5134768;27;20104;-58
2023/04/10 06:30:19;;;;;;;43.55;30.27;;;9.50;99.90;;;;;;5134892;27;20066;-58
2023/04/10 06:32:45;;;;;;;43.05;30.83;;;9.70;99.90;;;;;;5134971;27;20050;-58
2023/04/10 06:35:12;;;;;;;42.00;29.13;;;9.80;99.90;;;;;;5134852;27;20078;-59
2023/04/10 06:37:37;;;;;;;45.55;30.35;;;9.80;99.90;;;;;;5134621;27;20046;-58
2023/04/10 06:40:08;;;;;;;43.67;30.48;;;9.80;99.90;;;;;;5115476;27;20412;-58
2023/04/10 06:42:35;;;;;;;42.90;28.63;;;9.90;99.90;;;;;;5139332;27;20039;-58
2023/04/10 06:45:01;;;;;;;40.25;29.15;;;9.90;99.90;;;;;;5136639;27;20135;-58
2023/04/10 06:47:27;;;;;;;41.67;29.38;;;10.00;99.90;;;;;;5155139;27;20480;-58
2023/04/10 06:49:52;;;;;;;38.58;28.83;;;10.00;99.90;;;;;;5155234;27;20046;-58
2023/04/10 06:52:18;;;;;;;42.40;28.90;;;10.20;99.90;;;;;;5155108;27;20054;-58
2023/04/10 06:54:44;;;;;;;39.80;28.73;;;10.30;99.90;;;;;;5154907;27;20039;-58
2023/04/10 06:57:09;;;;;;;38.42;27.77;;;10.50;99.90;;;;;;5155197;27;20066;-58
2023/04/10 06:59:35;;;;;;;38.00;27.92;;;10.60;99.90;;;;;;5154923;27;20038;-58
2023/04/10 07:02:02;;;;;;;40.38;27.42;;;10.80;99.90;;;;;;5154911;27;20074;-58
2023/04/10 07:04:28;;;;;;;42.40;27.65;;;10.80;99.90;;;;;;5154958;27;20113;-58
2023/04/10 07:06:54;;;;;;;38.33;26.73;;;10.80;99.90;;;;;;5153999;27;20183;-58
2023/04/10 07:09:19;;;;;;;37.35;26.95;;;10.80;99.90;;;;;;5135800;27;20503;-58
2023/04/10 07:11:45;;;;;;;37.25;26.48;;;10.80;99.90;;;;;;5134157;27;20530;-59
2023/04/10 07:14:11;;;;;;;37.33;26.67;;;10.80;99.90;;;;;;5146117;27;20043;-58
2023/04/10 07:16:36;;;;;;;36.70;26.38;;;10.90;99.90;;;;;;5155134;27;20034;-58
2023/04/10 07:19:02;;;;;;;37.08;25.95;;;11.00;99.90;;;;;;5154482;27;20412;-58
2023/04/10 07:21:28;;;;;;;34.53;24.58;;;11.00;99.90;;;;;;5154600;27;20392;-58
2023/04/10 07:23:54;;;;;;;35.15;24.55;;;11.20;99.90;;;;;;5154767;27;20031;-58
2023/04/10 07:26:20;;;;;;;36.17;24.95;;;11.30;99.90;;;;;;5154507;27;20054;-58
2023/04/10 07:28:45;;;;;;;33.75;23.63;;;11.30;99.90;;;;;;5154275;27;20042;-58
2023/04/10 07:31:12;;;;;;;33.70;24.58;;;11.50;99.90;;;;;;5154455;27;20027;-58
2023/04/10 07:33:38;;;;;;;33.20;23.38;;;11.70;99.90;;;;;;5154456;27;20440;-59
2023/04/10 07:36:05;;;;;;;34.95;23.73;;;11.90;99.90;;;;;;5154546;27;20095;-58
2023/04/10 07:38:33;;;;;;;35.33;23.75;;;12.00;99.90;;;;;;5154051;27;20491;-58
2023/04/10 07:40:59;;;;;;;33.78;24.95;;;12.20;99.90;;;;;;5134078;27;20050;-59
2023/04/10 07:43:25;;;;;;;37.83;25.00;;;12.40;99.90;;;;;;5134283;27;20769;-58
2023/04/10 07:45:51;;;;;;;37.72;25.58;;;12.60;99.90;;;;;;5134508;27;20039;-59
2023/04/10 07:48:17;;;;;;;36.60;25.60;;;12.80;99.90;;;;;;5133287;27;20034;-59
2023/04/10 07:50:43;;;;;;;32.72;23.73;;;13.00;99.90;;;;;;5114925;27;20493;-59
2023/04/10 07:53:08;;;;;;;35.13;25.23;;;13.20;99.90;;;;;;5133515;27;20035;-58
2023/04/10 07:55:38;;;;;;;33.00;24.67;;;13.40;99.90;;;;;;5133565;27;20039;-59
2023/04/10 07:58:04;;;;;;;34.20;23.73;;;13.40;99.90;;;;;;5133406;27;20524;-59
2023/04/10 08:00:30;;;;;;;32.55;23.33;;;13.50;99.90;;;;;;5133260;27;20798;-59
2023/04/10 08:02:55;;;;;;;32.65;23.13;;;13.70;99.90;;;;;;5133294;27;20046;-59
2023/04/10 08:05:21;;;;;;;33.58;24.67;;;13.70;99.90;;;;;;5114654;27;20046;-58
2023/04/10 08:07:47;;;;;;;31.70;23.38;;;13.90;99.90;;;;;;5133258;27;20050;-58
2023/04/10 08:10:12;;;;;;;32.92;22.17;;;13.90;99.90;;;;;;5114018;27;20095;-59
2023/04/10 08:12:38;;;;;;;33.80;23.45;;;14.20;99.90;;;;;;5118966;27;20083;-58
2023/04/10 08:15:04;;;;;;;31.05;23.33;;;14.20;99.90;;;;;;5153899;27;20039;-58
2023/04/10 08:17:30;;;;;;;32.25;23.95;;;14.20;99.90;;;;;;5153129;27;20050;-59
2023/04/10 08:19:55;;;;;;;30.02;22.35;;;14.00;99.90;;;;;;5135105;27;20039;-59
2023/04/10 08:22:21;;;;;;;28.70;21.77;;;13.90;99.90;;;;;;5135521;27;20039;-59
2023/04/10 08:24:47;;;;;;;32.25;22.38;;;13.90;99.90;;;;;;5153469;27;20061;-59
2023/04/10 08:27:14;;;;;;;28.30;21.95;;;14.00;99.90;;;;;;5153588;27;20062;-59
2023/04/10 08:29:40;;;;;;;28.27;21.90;;;14.20;99.90;;;;;;5153479;27;20050;-59
2023/04/10 08:32:06;;;;;;;29.42;22.35;;;14.50;99.90;;;;;;5153970;27;20391;-59
2023/04/10 08:34:32;;;;;;;28.75;22.13;;;14.60;99.90;;;;;;5153839;27;20042;-59
2023/04/10 08:36:57;;;;;;;27.77;21.48;;;14.60;99.90;;;;;;5153623;27;20395;-59
2023/04/10 08:39:23;;;;;;;32.03;22.92;;;14.50;99.90;;;;;;5153335;27;20527;-59
2023/04/10 08:41:49;;;;;;;29.58;22.33;;;14.70;99.90;;;;;;5153797;27;20468;-59
2023/04/10 08:44:15;;;;;;;32.13;22.70;;;14.80;99.90;;;;;;5134850;27;20061;-59
2023/04/10 08:46:43;;;;;;;30.27;21.33;;;15.10;99.90;;;;;;5153492;27;20392;-58
2023/04/10 08:49:30;;;;;;;25.73;20.80;;;14.90;99.90;;;;;;5153486;27;20147;-58
2023/04/10 08:51:57;;;;;;;27.85;21.20;;;14.70;99.90;;;;;;5125727;27;20404;-58
2023/04/10 08:54:27;;;;;;;29.63;21.83;;;14.70;99.90;;;;;;5150107;27;20034;-59
2023/04/10 08:56:54;;;;;;;29.10;22.17;;;14.80;99.90;;;;;;5151837;27;20042;-58
2023/04/10 08:59:20;;;;;;;28.65;20.63;;;14.90;99.90;;;;;;5146333;27;20400;-59
2023/04/10 09:01:46;;;;;;;30.75;22.90;;;15.10;99.90;;;;;;5152652;27;20072;-58
2023/04/10 09:04:12;;;;;;;30.27;21.42;;;15.30;99.90;;;;;;5153864;27;20819;-59
2023/04/10 09:06:38;;;;;;;30.67;21.80;;;15.40;99.90;;;;;;5153746;27;20067;-59
2023/04/10 09:09:06;;;;;;;26.58;20.63;;;15.20;99.90;;;;;;5153206;27;20062;-59
2023/04/10 09:12:07;;;;;;;30.85;20.92;;;15.20;99.90;;;;;;5152928;27;20034;-59
2023/04/10 09:14:34;;;;;;;28.15;21.98;;;15.30;99.90;;;;;;5030480;28;20088;-59
2023/04/10 09:17:20;;;;;;;29.40;20.73;;;15.30;99.90;;;;;;5029509;28;20045;-59
2023/04/10 09:19:54;;;;;;;26.65;20.13;;;15.30;99.90;;;;;;5049081;28;20048;-59
2023/04/10 09:22:33;;;;;;;23.95;18.35;;;15.50;99.90;;;;;;5049403;28;20060;-59
2023/04/10 09:25:00;;;;;;;29.40;20.67;;;15.50;99.90;;;;;;5029356;28;20099;-58
2023/04/10 09:27:31;;;;;;;32.78;19.63;;;15.60;99.90;;;;;;5029395;28;20049;-59
2023/04/10 09:29:57;;;;;;;27.80;19.63;;;15.50;99.90;;;;;;5031691;28;20049;-59
2023/04/10 09:32:43;;;;;;;28.08;18.52;;;15.40;99.90;;;;;;5032909;28;20079;-59
2023/04/10 09:35:10;;;;;;;25.98;17.83;;;15.40;99.90;;;;;;5032887;28;20496;-59
2023/04/10 09:37:37;;;;;;;22.55;17.38;;;15.50;99.90;;;;;;5015821;28;20049;-58
2023/04/10 09:40:04;;;;;;;23.67;17.50;;;15.50;99.90;;;;;;5016307;28;20057;-59
2023/04/10 09:42:36;;;;;;;23.83;17.67;;;15.60;99.90;;;;;;5016162;28;20208;-59
2023/04/10 09:45:02;;;;;;;21.45;16.98;;;15.80;99.90;;;;;;5032682;28;20048;-59
2023/04/10 09:47:28;;;;;;;22.23;16.25;;;15.80;99.90;;;;;;5036569;28;20403;-59
2023/04/10 09:50:02;;;;;;;21.02;15.98;;;15.90;99.90;;;;;;5094652;28;20050;-58
2023/04/10 09:52:37;;;;;;;19.77;15.13;;;15.80;99.90;;;;;;5094733;28;20558;-58
2023/04/10 09:55:07;;;;;;;20.38;16.60;;;15.90;99.90;;;;;;5094650;28;20070;-59
2023/04/10 09:57:34;;;;;;;22.63;16.50;;;15.90;99.90;;;;;;5094773;28;20066;-58
2023/04/10 10:00:03;;;;;;;19.20;14.85;;;16.00;99.90;;;;;;5094730;28;20050;-59
2023/04/10 10:02:30;;;;;;;18.92;14.52;;;16.10;99.90;;;;;;5095097;28;20036;-59
2023/04/10 10:04:59;;;;;;;17.25;14.30;;;16.20;99.90;;;;;;5111270;28;20114;-59
2023/04/10 10:07:26;;;;;;;16.95;13.80;;;16.40;99.90;;;;;;5115084;28;20039;-59
2023/04/10 10:09:52;;;;;;;17.45;13.70;;;16.20;99.90;;;;;;5114910;28;20042;-59
2023/04/10 10:12:44;;;;;;;16.20;13.07;;;16.20;99.90;;;;;;5114964;28;20043;-58
2023/04/10 10:15:10;;;;;;;16.90;12.13;;;16.10;99.90;;;;;;5114683;28;20042;-58
2023/04/10 10:17:45;;;;;;;15.77;10.73;;;16.20;99.90;;;;;;5114789;28;20043;-57
2023/04/10 10:20:12;;;;;;;12.55;10.45;;;16.30;99.90;;;;;;5114329;28;20051;-58
2023/04/10 10:22:39;;;;;;;13.02;10.30;;;16.10;99.90;;;;;;5114576;28;20036;-58
2023/04/10 10:25:07;;;;;;;15.43;11.25;;;16.30;99.90;;;;;;5132057;27;20121;-59
2023/04/10 10:27:37;;;;;;;13.50;9.82;;;16.10;99.50;;;;;;5144767;27;20026;-60
2023/04/10 10:30:04;;;;;;;12.75;10.15;;;16.10;99.90;;;;;;5135928;27;20035;-58
2023/04/10 10:32:31;;;;;;;14.10;11.10;;;16.00;99.90;;;;;;5144538;27;20389;-58
2023/04/10 10:34:57;;;;;;;11.63;9.55;;;16.00;99.90;;;;;;5151293;27;20121;-58
2023/04/10 10:37:23;;;;;;;12.52;10.50;;;16.10;99.90;;;;;;5135383;27;20568;-58
2023/04/10 10:40:10;;;;;;;12.35;10.40;;;16.00;99.90;;;;;;5155371;27;20034;-58
2023/04/10 10:43:02;;;;;;;13.63;9.27;;;16.00;99.90;;;;;;5145708;27;20032;-59
2023/04/10 10:46:05;;;;;;;12.52;9.35;;;15.90;99.90;;;;;;5051207;28;20045;-58
2023/04/10 10:48:30;;;;;;;11.95;9.05;;;15.60;99.90;;;;;;5049217;28;20128;-57
2023/04/10 10:50:59;;;;;;;15.75;9.98;;;15.50;99.90;;;;;;5051081;28;20907;-57
2023/04/10 10:53:38;;;;;;;13.43;9.85;;;15.40;99.90;;;;;;5051238;28;20096;-58
2023/04/10 10:56:21;;;;;;;10.60;9.20;;;15.30;99.90;;;;;;5050888;28;20574;-59
2023/04/10 10:58:48;;;;;;;11.82;10.23;;;15.30;99.90;;;;;;5050854;28;20047;-58
2023/04/10 11:01:14;;;;;;;11.25;9.30;;;15.20;99.90;;;;;;5050919;28;20037;-58
2023/04/10 11:03:40;;;;;;;13.55;9.10;;;15.20;99.90;;;;;;5034619;28;20435;-57
2023/04/10 11:06:08;;;;;;;11.50;9.00;;;15.30;99.90;;;;;;5050634;28;20608;-57
2023/04/10 11:08:42;;;;;;;10.90;9.23;;;15.30;99.90;;;;;;5050864;28;20045;-58
2023/04/10 11:11:24;;;;;;;11.10;9.32;;;15.50;99.90;;;;;;5034302;28;20049;-57
2023/04/10 11:13:50;;;;;;;9.88;7.78;;;15.50;99.90;;;;;;5050516;28;20052;-57
2023/04/10 11:16:17;;;;;;;9.13;8.05;;;15.60;99.90;;;;;;5050605;28;20060;-57
2023/04/10 11:18:46;;;;;;;12.07;8.00;;;15.70;99.90;;;;;;5050710;28;20498;-58
2023/04/10 11:21:13;;;;;;;9.55;8.20;;;15.70;99.90;;;;;;5055807;27;20531;-58
2023/04/10 11:23:51;;;;;;;9.43;7.10;;;15.60;99.90;;;;;;5133932;27;20035;-57
2023/04/10 11:26:41;;;;;;;8.57;7.25;;;15.60;99.90;;;;;;5133765;27;20066;-57
2023/04/10 11:29:18;;;;;;;8.95;7.25;;;15.60;99.90;;;;;;5134090;27;20090;-57
2023/04/10 11:31:58;;;;;;;9.88;7.25;;;15.60;99.90;;;;;;5148116;27;20041;-58
2023/04/10 11:34:23;;;;;;;12.52;7.07;;;15.50;99.90;;;;;;5154417;27;20150;-58
2023/04/10 11:36:49;;;;;;;11.10;7.35;;;15.60;99.90;;;;;;5154568;27;20476;-58
2023/04/10 11:39:19;;;;;;;9.90;6.63;;;15.60;99.90;;;;;;5136197;27;20043;-57
2023/04/10 11:41:47;;;;;;;7.07;6.32;;;15.70;99.90;;;;;;5154298;27;20117;-57
2023/04/10 11:44:31;;;;;;;7.65;6.45;;;15.70;99.90;;;;;;5154144;27;20091;-58
2023/04/10 11:46:57;;;;;;;7.57;5.80;;;15.80;99.90;;;;;;5118389;27;20093;-57
2023/04/10 11:49:25;;;;;;;7.35;6.55;;;15.80;99.90;;;;;;5135721;27;20077;-57
2023/04/10 11:51:51;;;;;;;8.53;5.77;;;15.80;99.90;;;;;;5154012;27;20050;-58
2023/04/10 11:54:18;;;;;;;7.15;5.70;;;15.80;99.90;;;;;;5118291;27;20371;-58
2023/04/10 11:56:57;;;;;;;6.90;5.28;;;15.80;99.90;;;;;;5154337;27;20035;-57
2023/04/10 11:59:24;;;;;;;8.75;5.93;;;15.80;99.90;;;;;;5153745;27;20042;-59
2023/04/10 12:01:54;;;;;;;8.57;6.38;;;15.90;99.90;;;;;;5154254;27;20038;-57
2023/04/10 12:04:21;;;;;;;7.18;5.97;;;16.00;99.90;;;;;;5153795;27;20067;-57
2023/04/10 12:06:52;;;;;;;8.05;6.07;;;16.30;99.90;;;;;;5153956;27;20449;-57
2023/04/10 12:09:20;;;;;;;7.10;5.50;;;16.30;99.90;;;;;;5154223;27;20035;-57
2023/04/10 12:11:54;;;;;;;6.63;5.22;;;16.30;99.90;;;;;;5153944;27;20041;-58
2023/04/10 12:14:21;;;;;;;8.68;5.15;;;16.40;99.90;;;;;;5154172;27;20038;-58
2023/04/10 12:16:48;;;;;;;6.60;5.00;;;16.50;99.90;;;;;;5153948;27;20030;-58
2023/04/10 12:19:17;;;;;;;9.45;4.57;;;16.50;99.90;;;;;;5147710;27;20065;-59
2023/04/10 12:21:44;;;;;;;9.05;4.28;;;16.80;99.90;;;;;;5133039;27;20027;-57
2023/04/10 12:24:12;;;;;;;6.28;4.55;;;17.00;99.90;;;;;;5118562;27;20039;-58
2023/04/10 12:26:45;;;;;;;4.80;4.05;;;17.30;99.90;;;;;;5149551;27;20109;-58
2023/04/10 12:29:11;;;;;;;6.78;4.43;;;17.40;99.80;;;;;;5140873;27;20039;-59
2023/04/10 12:31:37;;;;;;;4.72;4.10;;;17.50;99.00;;;;;;5138848;27;20072;-58
2023/04/10 12:34:04;;;;;;;8.98;4.28;;;17.50;99.20;;;;;;5151955;27;20426;-58
2023/04/10 12:36:33;;;;;;;5.65;4.30;;;17.40;99.30;;;;;;5145864;27;20432;-58
2023/04/10 12:38:59;;;;;;;;;;;17.20;99.00;;;;;;5147836;27;20095;-59
2023/04/10 12:41:33;;;;;;;5.60;4.50;;;17.00;99.80;;;;;;5136972;27;19915;-57